sensor_id;sensor_type;location;lat;lon;timestamp;pressure;altitude;pressure_sealevel;temperature;humidity
72892;BME280;61032;50.782;6.818;2023-07-29T00:00:49;99750.47;;;20.00;87.88
72892;BME280;61032;50.782;6.818;2023-07-29T00:01:50;99750.47;;;20.00;87.69
72892;BME280;61032;50.782;6.818;2023-07-29T00:02:51;99754.44;;;20.02;88.13
72892;BME280;61032;50.782;6.818;2023-07-29T00:03:51;99748.44;;;20.04;87.76
72892;BME280;61032;50.782;6.818;2023-07-29T00:04:51;99752.81;;;20.05;87.29
72892;BME280;61032;50.782;6.818;2023-07-29T00:05:52;99751.22;;;20.04;87.75
72892;BME280;61032;50.782;6.818;2023-07-29T00:06:52;99754.81;;;20.04;87.45
72892;BME280;61032;50.782;6.818;2023-07-29T00:07:52;99752.44;;;20.03;87.45
72892;BME280;61032;50.782;6.818;2023-07-29T00:08:53;99750.81;;;20.05;87.36
72892;BME280;61032;50.782;6.818;2023-07-29T00:09:53;99756.00;;;20.07;87.77
72892;BME280;61032;50.782;6.818;2023-07-29T00:10:53;99749.22;;;20.08;87.95
72892;BME280;61032;50.782;6.818;2023-07-29T00:11:54;99754.75;;;20.11;88.30
72892;BME280;61032;50.782;6.818;2023-07-29T00:12:54;99743.22;;;20.09;88.30
72892;BME280;61032;50.782;6.818;2023-07-29T00:13:54;99749.59;;;20.10;87.88
72892;BME280;61032;50.782;6.818;2023-07-29T00:14:55;99749.59;;;20.10;87.81
72892;BME280;61032;50.782;6.818;2023-07-29T00:15:55;99745.63;;;20.07;87.78
72892;BME280;61032;50.782;6.818;2023-07-29T00:16:56;99750.78;;;20.09;87.81
72892;BME280;61032;50.782;6.818;2023-07-29T00:17:56;99742.41;;;20.09;87.64
72892;BME280;61032;50.782;6.818;2023-07-29T00:18:56;99746.81;;;20.06;87.53
72892;BME280;61032;50.782;6.818;2023-07-29T00:19:57;99746.41;;;20.08;87.57
72892;BME280;61032;50.782;6.818;2023-07-29T00:20:57;99742.84;;;20.07;88.35
72892;BME280;61032;50.782;6.818;2023-07-29T00:21:57;99752.38;;;20.10;87.91
72892;BME280;61032;50.782;6.818;2023-07-29T00:22:58;99751.19;;;20.11;87.71
72892;BME280;61032;50.782;6.818;2023-07-29T00:23:59;99747.19;;;20.12;88.00
72892;BME280;61032;50.782;6.818;2023-07-29T00:25:01;99752.78;;;20.12;88.28
72892;BME280;61032;50.782;6.818;2023-07-29T00:26:01;99742.81;;;20.11;88.16
72892;BME280;61032;50.782;6.818;2023-07-29T00:27:02;99745.59;;;20.11;88.66
72892;BME280;61032;50.782;6.818;2023-07-29T00:28:02;99747.19;;;20.12;88.10
72892;BME280;61032;50.782;6.818;2023-07-29T00:29:02;99744.00;;;20.10;88.84
72892;BME280;61032;50.782;6.818;2023-07-29T00:30:03;99748.00;;;20.09;88.47
72892;BME280;61032;50.782;6.818;2023-07-29T00:31:04;99741.63;;;20.08;88.62
72892;BME280;61032;50.782;6.818;2023-07-29T00:32:04;99736.84;;;20.09;88.66
72892;BME280;61032;50.782;6.818;2023-07-29T00:33:05;99741.63;;;20.08;88.63
72892;BME280;61032;50.782;6.818;2023-07-29T00:34:05;99739.63;;;20.09;89.08
72892;BME280;61032;50.782;6.818;2023-07-29T00:35:06;99736.84;;;20.09;88.88
72892;BME280;61032;50.782;6.818;2023-07-29T00:36:06;99732.47;;;20.08;88.69
72892;BME280;61032;50.782;6.818;2023-07-29T00:37:07;99737.25;;;20.07;89.32
72892;BME280;61032;50.782;6.818;2023-07-29T00:38:07;99735.66;;;20.06;89.12
72892;BME280;61032;50.782;6.818;2023-07-29T00:39:07;99732.91;;;20.03;88.79
72892;BME280;61032;50.782;6.818;2023-07-29T00:40:14;99737.28;;;20.04;89.08
72892;BME280;61032;50.782;6.818;2023-07-29T00:41:16;99732.53;;;20.01;88.83
72892;BME280;61032;50.782;6.818;2023-07-29T00:42:16;99735.31;;;20.01;89.34
72892;BME280;61032;50.782;6.818;2023-07-29T00:43:16;99733.41;;;19.94;89.27
72892;BME280;61032;50.782;6.818;2023-07-29T00:44:17;99727.38;;;19.96;88.84
72892;BME280;61032;50.782;6.818;2023-07-29T00:45:18;99729.75;;;19.97;89.00
72892;BME280;61032;50.782;6.818;2023-07-29T00:46:20;99726.94;;;20.01;88.69
72892;BME280;61032;50.782;6.818;2023-07-29T00:47:21;99724.53;;;20.03;89.13
72892;BME280;61032;50.782;6.818;2023-07-29T00:48:22;99720.59;;;19.97;88.82
72892;BME280;61032;50.782;6.818;2023-07-29T00:49:22;99719.84;;;19.93;88.88
72892;BME280;61032;50.782;6.818;2023-07-29T00:50:23;99717.44;;;19.95;89.35
72892;BME280;61032;50.782;6.818;2023-07-29T00:51:23;99714.66;;;19.95;88.88
72892;BME280;61032;50.782;6.818;2023-07-29T00:52:23;99709.88;;;19.95;89.40
72892;BME280;61032;50.782;6.818;2023-07-29T00:53:24;99714.66;;;19.95;89.17
72892;BME280;61032;50.782;6.818;2023-07-29T00:54:24;99716.22;;;19.96;89.19
72892;BME280;61032;50.782;6.818;2023-07-29T00:55:25;99717.06;;;19.93;89.75
72892;BME280;61032;50.782;6.818;2023-07-29T00:56:25;99717.88;;;19.93;89.35
72892;BME280;61032;50.782;6.818;2023-07-29T00:57:26;99723.44;;;19.93;89.01
72892;BME280;61032;50.782;6.818;2023-07-29T00:58:26;99716.66;;;19.94;89.28
72892;BME280;61032;50.782;6.818;2023-07-29T00:59:27;99716.28;;;19.92;88.82
72892;BME280;61032;50.782;6.818;2023-07-29T01:00:28;99711.50;;;19.93;88.96
72892;BME280;61032;50.782;6.818;2023-07-29T01:01:29;99709.91;;;19.92;89.26
72892;BME280;61032;50.782;6.818;2023-07-29T01:02:30;99707.53;;;19.90;89.10
72892;BME280;61032;50.782;6.818;2023-07-29T01:03:32;99712.31;;;19.89;89.11
72892;BME280;61032;50.782;6.818;2023-07-29T01:04:33;99719.47;;;19.90;89.29
72892;BME280;61032;50.782;6.818;2023-07-29T01:07:13;99704.38;;;19.84;89.40
72892;BME280;61032;50.782;6.818;2023-07-29T01:08:22;99703.59;;;19.84;89.63
72892;BME280;61032;50.782;6.818;2023-07-29T01:12:08;99698.13;;;19.73;90.79
72892;BME280;61032;50.782;6.818;2023-07-29T01:14:54;99694.47;;;19.76;90.25
72892;BME280;61032;50.782;6.818;2023-07-29T01:16:00;99687.75;;;19.74;90.19
72892;BME280;61032;50.782;6.818;2023-07-29T01:17:08;99688.53;;;19.74;90.29
72892;BME280;61032;50.782;6.818;2023-07-29T01:20:59;99683.44;;;19.66;90.79
72892;BME280;61032;50.782;6.818;2023-07-29T01:22:02;99687.00;;;19.66;91.19
72892;BME280;61032;50.782;6.818;2023-07-29T01:23:03;99693.41;;;19.63;90.93
72892;BME280;61032;50.782;6.818;2023-07-29T01:24:03;99697.41;;;19.62;91.30
72892;BME280;61032;50.782;6.818;2023-07-29T01:25:04;99697.41;;;19.62;91.10
72892;BME280;61032;50.782;6.818;2023-07-29T01:26:04;99696.59;;;19.65;90.90
72892;BME280;61032;50.782;6.818;2023-07-29T01:27:05;99702.16;;;19.65;90.71
72892;BME280;61032;50.782;6.818;2023-07-29T01:28:05;99698.56;;;19.68;91.15
72892;BME280;61032;50.782;6.818;2023-07-29T01:29:06;99691.78;;;19.69;91.16
72892;BME280;61032;50.782;6.818;2023-07-29T01:30:06;99690.94;;;19.72;90.95
72892;BME280;61032;50.782;6.818;2023-07-29T01:31:13;99697.69;;;19.75;90.64
72892;BME280;61032;50.782;6.818;2023-07-29T01:32:20;99686.91;;;19.77;90.77
72892;BME280;61032;50.782;6.818;2023-07-29T01:33:31;99687.75;;;19.74;90.50
72892;BME280;61032;50.782;6.818;2023-07-29T01:35:07;99682.59;;;19.72;90.68
72892;BME280;61032;50.782;6.818;2023-07-29T01:36:21;99682.19;;;19.70;90.57
72892;BME280;61032;50.782;6.818;2023-07-29T01:37:26;99685.78;;;19.71;90.94
72892;BME280;61032;50.782;6.818;2023-07-29T01:38:32;99683.41;;;19.69;90.23
72892;BME280;61032;50.782;6.818;2023-07-29T01:39:36;99688.22;;;19.65;90.44
72892;BME280;61032;50.782;6.818;2023-07-29T01:40:37;99691.00;;;19.65;91.12
72892;BME280;61032;50.782;6.818;2023-07-29T01:41:39;99696.59;;;19.65;90.56
72892;BME280;61032;50.782;6.818;2023-07-29T01:42:39;99692.19;;;19.68;90.80
72892;BME280;61032;50.782;6.818;2023-07-29T01:43:40;99694.16;;;19.67;91.18
72892;BME280;61032;50.782;6.818;2023-07-29T01:44:44;99690.19;;;19.68;91.27
72892;BME280;61032;50.782;6.818;2023-07-29T01:45:44;99692.97;;;19.68;91.13
72892;BME280;61032;50.782;6.818;2023-07-29T01:46:45;99691.38;;;19.67;91.00
72892;BME280;61032;50.782;6.818;2023-07-29T01:47:45;99688.97;;;19.69;90.67
72892;BME280;61032;50.782;6.818;2023-07-29T01:48:46;99692.09;;;19.75;90.93
72892;BME280;61032;50.782;6.818;2023-07-29T01:49:46;99696.13;;;19.74;90.62
72892;BME280;61032;50.782;6.818;2023-07-29T01:50:46;99706.47;;;19.73;90.97
72892;BME280;61032;50.782;6.818;2023-07-29T01:51:46;99705.63;;;19.76;91.01
72892;BME280;61032;50.782;6.818;2023-07-29T01:52:47;99700.44;;;19.78;91.07
72892;BME280;61032;50.782;6.818;2023-07-29T01:53:47;99709.56;;;19.82;91.50
72892;BME280;61032;50.782;6.818;2023-07-29T01:54:47;99708.75;;;19.85;91.36
72892;BME280;61032;50.782;6.818;2023-07-29T01:55:48;99705.97;;;19.85;90.94
72892;BME280;61032;50.782;6.818;2023-07-29T01:56:48;99705.16;;;19.85;90.63
72892;BME280;61032;50.782;6.818;2023-07-29T01:57:51;99710.34;;;19.86;90.92
72892;BME280;61032;50.782;6.818;2023-07-29T01:58:51;99705.16;;;19.85;90.89
72892;BME280;61032;50.782;6.818;2023-07-29T01:59:52;99700.41;;;19.82;91.99
72892;BME280;61032;50.782;6.818;2023-07-29T02:00:52;99706.78;;;19.82;92.40
72892;BME280;61032;50.782;6.818;2023-07-29T02:01:52;99705.59;;;19.83;92.64
72892;BME280;61032;50.782;6.818;2023-07-29T02:02:53;99703.56;;;19.87;92.57
72892;BME280;61032;50.782;6.818;2023-07-29T02:03:53;99705.53;;;19.90;93.07
72892;BME280;61032;50.782;6.818;2023-07-29T02:04:55;99700.75;;;19.91;93.07
72892;BME280;61032;50.782;6.818;2023-07-29T02:05:56;99698.34;;;19.93;92.78
72892;BME280;61032;50.782;6.818;2023-07-29T02:06:56;99699.13;;;19.94;93.04
72892;BME280;61032;50.782;6.818;2023-07-29T02:07:56;99694.38;;;19.90;92.97
72892;BME280;61032;50.782;6.818;2023-07-29T02:08:56;99697.97;;;19.87;93.31
72892;BME280;61032;50.782;6.818;2023-07-29T02:09:57;99700.78;;;19.84;93.26
72892;BME280;61032;50.782;6.818;2023-07-29T02:10:57;99699.22;;;19.79;93.71
72892;BME280;61032;50.782;6.818;2023-07-29T02:11:57;99706.81;;;19.79;93.96
72892;BME280;61032;50.782;6.818;2023-07-29T02:12:58;99697.25;;;19.76;93.78
72892;BME280;61032;50.782;6.818;2023-07-29T02:13:58;99704.84;;;19.76;94.38
72892;BME280;61032;50.782;6.818;2023-07-29T02:14:58;99696.47;;;19.76;94.52
72892;BME280;61032;50.782;6.818;2023-07-29T02:15:59;99686.16;;;19.73;94.39
72892;BME280;61032;50.782;6.818;2023-07-29T02:16:59;99682.16;;;19.74;94.80
72892;BME280;61032;50.782;6.818;2023-07-29T02:18:00;99680.59;;;19.73;94.89
72892;BME280;61032;50.782;6.818;2023-07-29T02:19:01;99678.22;;;19.68;94.73
72892;BME280;61032;50.782;6.818;2023-07-29T02:20:03;99680.63;;;19.66;95.30
72892;BME280;61032;50.782;6.818;2023-07-29T02:21:03;99683.03;;;19.67;95.33
72892;BME280;61032;50.782;6.818;2023-07-29T02:22:04;99684.59;;;19.68;95.51
72892;BME280;61032;50.782;6.818;2023-07-29T02:23:05;99685.41;;;19.69;95.34
72892;BME280;61032;50.782;6.818;2023-07-29T02:24:05;99682.19;;;19.70;94.73
72892;BME280;61032;50.782;6.818;2023-07-29T02:25:05;99686.19;;;19.69;94.33
72892;BME280;61032;50.782;6.818;2023-07-29T02:26:06;99681.81;;;19.68;94.51
72892;BME280;61032;50.782;6.818;2023-07-29T02:27:06;99687.81;;;19.67;94.13
72892;BME280;61032;50.782;6.818;2023-07-29T02:28:06;99682.22;;;19.67;94.35
72892;BME280;61032;50.782;6.818;2023-07-29T02:29:07;99689.03;;;19.62;94.51
72892;BME280;61032;50.782;6.818;2023-07-29T02:30:07;99688.22;;;19.65;94.57
72892;BME280;61032;50.782;6.818;2023-07-29T02:31:16;99692.63;;;19.63;94.54
72892;BME280;61032;50.782;6.818;2023-07-29T02:32:17;99693.81;;;19.62;94.35
72892;BME280;61032;50.782;6.818;2023-07-29T02:33:17;99695.44;;;19.59;94.98
72892;BME280;61032;50.782;6.818;2023-07-29T02:34:18;99698.59;;;19.61;95.01
72892;BME280;61032;50.782;6.818;2023-07-29T02:35:18;99692.63;;;19.59;95.54
72892;BME280;61032;50.782;6.818;2023-07-29T02:36:19;99691.06;;;19.58;95.30
72892;BME280;61032;50.782;6.818;2023-07-29T02:37:19;99697.84;;;19.57;94.78
72892;BME280;61032;50.782;6.818;2023-07-29T02:38:20;99694.25;;;19.56;95.00
72892;BME280;61032;50.782;6.818;2023-07-29T02:39:20;99695.84;;;19.54;94.76
72892;BME280;61032;50.782;6.818;2023-07-29T02:40:21;99691.13;;;19.51;94.68
72892;BME280;61032;50.782;6.818;2023-07-29T02:41:22;99696.28;;;19.52;94.57
72892;BME280;61032;50.782;6.818;2023-07-29T02:42:23;99705.06;;;19.51;94.87
72892;BME280;61032;50.782;6.818;2023-07-29T02:43:23;99695.13;;;19.50;95.00
72892;BME280;61032;50.782;6.818;2023-07-29T02:44:24;99704.66;;;19.49;95.21
72892;BME280;61032;50.782;6.818;2023-07-29T02:45:24;99698.69;;;19.47;95.16
72892;BME280;61032;50.782;6.818;2023-07-29T02:46:24;99702.28;;;19.44;95.32
72892;BME280;61032;50.782;6.818;2023-07-29T02:47:25;99699.13;;;19.42;95.37
72892;BME280;61032;50.782;6.818;2023-07-29T02:48:25;99695.94;;;19.43;95.14
72892;BME280;61032;50.782;6.818;2023-07-29T02:49:25;99699.13;;;19.42;95.68
72892;BME280;61032;50.782;6.818;2023-07-29T02:50:26;99699.56;;;19.37;95.71
72892;BME280;61032;50.782;6.818;2023-07-29T02:51:26;99708.69;;;19.41;95.62
72892;BME280;61032;50.782;6.818;2023-07-29T02:52:26;99696.75;;;19.40;95.70
72892;BME280;61032;50.782;6.818;2023-07-29T02:53:27;99697.50;;;19.44;95.63
72892;BME280;61032;50.782;6.818;2023-07-29T02:54:27;99695.94;;;19.43;96.08
72892;BME280;61032;50.782;6.818;2023-07-29T02:55:27;99700.28;;;19.48;95.58
72892;BME280;61032;50.782;6.818;2023-07-29T02:56:28;99692.34;;;19.50;95.40
72892;BME280;61032;50.782;6.818;2023-07-29T02:57:28;99693.50;;;19.49;95.08
72892;BME280;61032;50.782;6.818;2023-07-29T02:58:28;99693.91;;;19.47;95.70
72892;BME280;61032;50.782;6.818;2023-07-29T02:59:29;99687.94;;;19.49;95.71
72892;BME280;61032;50.782;6.818;2023-07-29T03:00:31;99693.13;;;19.47;95.17
72892;BME280;61032;50.782;6.818;2023-07-29T03:01:31;99692.72;;;19.48;95.26
72892;BME280;61032;50.782;6.818;2023-07-29T03:02:32;99693.50;;;19.49;95.45
72892;BME280;61032;50.782;6.818;2023-07-29T03:03:33;99687.16;;;19.45;95.51
72892;BME280;61032;50.782;6.818;2023-07-29T03:04:33;99680.38;;;19.46;95.77
72892;BME280;61032;50.782;6.818;2023-07-29T03:05:34;99670.81;;;19.47;95.41
72892;BME280;61032;50.782;6.818;2023-07-29T03:06:34;99677.56;;;19.49;95.27
72892;BME280;61032;50.782;6.818;2023-07-29T03:07:34;99685.53;;;19.47;94.87
72892;BME280;61032;50.782;6.818;2023-07-29T03:08:35;99682.34;;;19.49;95.36
72892;BME280;61032;50.782;6.818;2023-07-29T03:09:36;99685.56;;;19.51;94.69
72892;BME280;61032;50.782;6.818;2023-07-29T03:10:36;99689.53;;;19.50;95.05
72892;BME280;61032;50.782;6.818;2023-07-29T03:11:36;99699.06;;;19.49;94.91
72892;BME280;61032;50.782;6.818;2023-07-29T03:12:37;99689.94;;;19.52;94.61
72892;BME280;61032;50.782;6.818;2023-07-29T03:13:37;99693.50;;;19.52;94.08
72892;BME280;61032;50.782;6.818;2023-07-29T03:14:38;99696.72;;;19.44;93.85
72892;BME280;61032;50.782;6.818;2023-07-29T03:15:38;99694.38;;;19.39;94.61
72892;BME280;61032;50.782;6.818;2023-07-29T03:16:38;99701.22;;;19.31;94.23
72892;BME280;61032;50.782;6.818;2023-07-29T03:17:39;99701.59;;;19.33;93.88
72892;BME280;61032;50.782;6.818;2023-07-29T03:18:40;99689.66;;;19.32;94.09
72892;BME280;61032;50.782;6.818;2023-07-29T03:19:40;99695.19;;;19.36;94.05
72892;BME280;61032;50.782;6.818;2023-07-29T03:20:41;99696.75;;;19.37;93.96
72892;BME280;61032;50.782;6.818;2023-07-29T03:21:42;99689.19;;;19.37;93.57
72892;BME280;61032;50.782;6.818;2023-07-29T03:22:42;99701.53;;;19.40;93.44
72892;BME280;61032;50.782;6.818;2023-07-29T03:23:42;99692.75;;;19.41;93.34
72892;BME280;61032;50.782;6.818;2023-07-29T03:24:42;99695.16;;;19.39;92.98
72892;BME280;61032;50.782;6.818;2023-07-29T03:25:43;99695.16;;;19.39;92.99
72892;BME280;61032;50.782;6.818;2023-07-29T03:26:43;99691.97;;;19.41;92.96
72892;BME280;61032;50.782;6.818;2023-07-29T03:27:43;99695.13;;;19.43;92.47
72892;BME280;61032;50.782;6.818;2023-07-29T03:28:44;99693.16;;;19.40;92.35
72892;BME280;61032;50.782;6.818;2023-07-29T03:29:44;99699.16;;;19.35;91.66
72892;BME280;61032;50.782;6.818;2023-07-29T03:30:44;99701.59;;;19.33;92.74
72892;BME280;61032;50.782;6.818;2023-07-29T03:31:45;99691.22;;;19.33;92.31
72892;BME280;61032;50.782;6.818;2023-07-29T03:32:45;99692.78;;;19.38;92.07
72892;BME280;61032;50.782;6.818;2023-07-29T03:33:45;99693.19;;;19.36;91.72
72892;BME280;61032;50.782;6.818;2023-07-29T03:34:46;99693.59;;;19.35;91.40
72892;BME280;61032;50.782;6.818;2023-07-29T03:35:46;99693.97;;;19.37;91.20
72892;BME280;61032;50.782;6.818;2023-07-29T03:36:47;99695.63;;;19.31;91.37
72892;BME280;61032;50.782;6.818;2023-07-29T03:37:51;99689.69;;;19.29;91.94
72892;BME280;61032;50.782;6.818;2023-07-29T03:38:52;99681.31;;;19.29;91.74
72892;BME280;61032;50.782;6.818;2023-07-29T03:39:52;99688.47;;;19.30;91.53
72892;BME280;61032;50.782;6.818;2023-07-29T03:40:52;99681.69;;;19.31;91.84
72892;BME280;61032;50.782;6.818;2023-07-29T03:41:53;99674.53;;;19.30;91.63
72892;BME280;61032;50.782;6.818;2023-07-29T03:42:53;99681.31;;;19.25;92.16
72892;BME280;61032;50.782;6.818;2023-07-29T03:43:54;99676.56;;;19.26;92.26
72892;BME280;61032;50.782;6.818;2023-07-29T03:44:54;99668.59;;;19.24;92.06
72892;BME280;61032;50.782;6.818;2023-07-29T03:45:54;99680.13;;;19.26;92.19
72892;BME280;61032;50.782;6.818;2023-07-29T03:46:55;99661.03;;;19.25;92.05
72892;BME280;61032;50.782;6.818;2023-07-29T03:47:55;99668.97;;;19.26;92.61
72892;BME280;61032;50.782;6.818;2023-07-29T03:48:56;99661.41;;;19.27;92.49
72892;BME280;61032;50.782;6.818;2023-07-29T03:49:57;99661.81;;;19.25;93.03
72892;BME280;61032;50.782;6.818;2023-07-29T03:50:57;99667.41;;;19.25;93.04
72892;BME280;61032;50.782;6.818;2023-07-29T03:51:57;99669.38;;;19.28;93.04
72892;BME280;61032;50.782;6.818;2023-07-29T03:52:58;99679.34;;;19.26;92.63
72892;BME280;61032;50.782;6.818;2023-07-29T03:53:58;99681.34;;;19.21;92.83
72892;BME280;61032;50.782;6.818;2023-07-29T03:54:58;99684.63;;;19.09;93.23
72892;BME280;61032;50.782;6.818;2023-07-29T03:56:00;99686.22;;;19.10;93.42
72892;BME280;61032;50.782;6.818;2023-07-29T03:57:01;99684.66;;;19.06;94.05
72892;BME280;61032;50.782;6.818;2023-07-29T03:58:01;99687.44;;;19.06;93.99
72892;BME280;61032;50.782;6.818;2023-07-29T03:59:03;99692.59;;;19.07;94.47
72892;BME280;61032;50.782;6.818;2023-07-29T04:00:04;99693.03;;;19.02;94.52
72892;BME280;61032;50.782;6.818;2023-07-29T04:01:04;99693.03;;;19.02;95.31
72892;BME280;61032;50.782;6.818;2023-07-29T04:02:05;99689.84;;;19.04;95.49
72892;BME280;61032;50.782;6.818;2023-07-29T04:03:05;99702.19;;;18.99;95.40
72892;BME280;61032;50.782;6.818;2023-07-29T04:04:05;99705.38;;;18.98;95.02
72892;BME280;61032;50.782;6.818;2023-07-29T04:05:06;99702.19;;;18.99;94.82
72892;BME280;61032;50.782;6.818;2023-07-29T04:06:08;99695.44;;;18.97;95.25
72892;BME280;61032;50.782;6.818;2023-07-29T04:07:09;99706.19;;;18.98;95.17
72892;BME280;61032;50.782;6.818;2023-07-29T04:08:09;99698.22;;;18.97;94.95
72892;BME280;61032;50.782;6.818;2023-07-29T04:09:10;99690.25;;;18.95;95.01
72892;BME280;61032;50.782;6.818;2023-07-29T04:10:10;99686.28;;;18.96;94.56
72892;BME280;61032;50.782;6.818;2023-07-29T04:11:11;99685.09;;;18.94;94.96
72892;BME280;61032;50.782;6.818;2023-07-29T04:12:11;99682.72;;;18.92;94.12
72892;BME280;61032;50.782;6.818;2023-07-29T04:13:11;99689.53;;;18.91;94.00
72892;BME280;61032;50.782;6.818;2023-07-29T04:14:12;99693.50;;;18.90;93.78
72892;BME280;61032;50.782;6.818;2023-07-29T04:15:12;99700.28;;;18.89;93.34
72892;BME280;61032;50.782;6.818;2023-07-29T04:16:12;99703.06;;;18.89;93.23
72892;BME280;61032;50.782;6.818;2023-07-29T04:17:13;99709.81;;;18.88;93.20
72892;BME280;61032;50.782;6.818;2023-07-29T04:18:13;99706.22;;;18.91;93.71
72892;BME280;61032;50.782;6.818;2023-07-29T04:19:14;99713.00;;;18.90;93.33
72892;BME280;61032;50.782;6.818;2023-07-29T04:20:14;99706.22;;;18.91;93.11
72892;BME280;61032;50.782;6.818;2023-07-29T04:21:14;99702.66;;;18.87;93.14
72892;BME280;61032;50.782;6.818;2023-07-29T04:22:16;99707.44;;;18.86;93.07
72892;BME280;61032;50.782;6.818;2023-07-29T04:23:16;99697.50;;;18.85;92.90
72892;BME280;61032;50.782;6.818;2023-07-29T04:24:16;99697.50;;;18.82;93.52
72892;BME280;61032;50.782;6.818;2023-07-29T04:25:17;99693.53;;;18.83;93.18
72892;BME280;61032;50.782;6.818;2023-07-29T04:26:17;99693.91;;;18.85;93.51
72892;BME280;61032;50.782;6.818;2023-07-29T04:27:18;99704.66;;;18.90;93.55
72892;BME280;61032;50.782;6.818;2023-07-29T04:28:18;99700.28;;;18.85;93.87
72892;BME280;61032;50.782;6.818;2023-07-29T04:29:18;99703.09;;;18.82;93.62
72892;BME280;61032;50.782;6.818;2023-07-29T04:30:19;99704.28;;;18.81;93.53
72892;BME280;61032;50.782;6.818;2023-07-29T04:31:19;99713.44;;;18.81;93.44
72892;BME280;61032;50.782;6.818;2023-07-29T04:32:19;99716.22;;;18.81;93.71
72892;BME280;61032;50.782;6.818;2023-07-29T04:33:20;99715.44;;;18.81;93.98
72892;BME280;61032;50.782;6.818;2023-07-29T04:34:20;99713.44;;;18.78;93.80
72892;BME280;61032;50.782;6.818;2023-07-29T04:35:20;99718.22;;;18.77;93.43
72892;BME280;61032;50.782;6.818;2023-07-29T04:36:21;99717.44;;;18.77;93.41
72892;BME280;61032;50.782;6.818;2023-07-29T04:37:21;99726.19;;;18.75;93.60
72892;BME280;61032;50.782;6.818;2023-07-29T04:38:21;99727.38;;;18.74;93.77
72892;BME280;61032;50.782;6.818;2023-07-29T04:39:21;99726.19;;;18.72;93.71
72892;BME280;61032;50.782;6.818;2023-07-29T04:40:22;99723.41;;;18.72;93.93
72892;BME280;61032;50.782;6.818;2023-07-29T04:41:23;99726.59;;;18.74;93.68
72892;BME280;61032;50.782;6.818;2023-07-29T04:42:23;99722.19;;;18.76;93.67
72892;BME280;61032;50.782;6.818;2023-07-29T04:43:26;99725.38;;;18.75;94.07
72892;BME280;61032;50.782;6.818;2023-07-29T04:44:27;99728.97;;;18.75;94.38
72892;BME280;61032;50.782;6.818;2023-07-29T04:45:28;99726.97;;;18.76;94.17
72892;BME280;61032;50.782;6.818;2023-07-29T04:46:29;99724.59;;;18.78;93.78
72892;BME280;61032;50.782;6.818;2023-07-29T04:47:29;99724.97;;;18.80;93.87
72892;BME280;61032;50.782;6.818;2023-07-29T04:48:30;99730.53;;;18.83;94.33
72892;BME280;61032;50.782;6.818;2023-07-29T04:49:30;99731.31;;;18.84;94.09
72892;BME280;61032;50.782;6.818;2023-07-29T04:50:30;99732.91;;;18.85;94.40
72892;BME280;61032;50.782;6.818;2023-07-29T04:51:31;99735.31;;;18.83;94.37
72892;BME280;61032;50.782;6.818;2023-07-29T04:52:34;99736.91;;;18.84;94.66
72892;BME280;61032;50.782;6.818;2023-07-29T04:53:34;99736.50;;;18.82;94.23
72892;BME280;61032;50.782;6.818;2023-07-29T04:54:36;99732.91;;;18.85;94.57
72892;BME280;61032;50.782;6.818;2023-07-29T04:55:36;99738.09;;;18.83;94.23
72892;BME280;61032;50.782;6.818;2023-07-29T04:56:37;99734.91;;;18.84;94.63
72892;BME280;61032;50.782;6.818;2023-07-29T04:57:37;99729.72;;;18.86;94.20
72892;BME280;61032;50.782;6.818;2023-07-29T04:58:37;99730.53;;;18.87;94.00
72892;BME280;61032;50.782;6.818;2023-07-29T04:59:38;99728.13;;;18.89;94.20
72892;BME280;61032;50.782;6.818;2023-07-29T05:00:38;99726.94;;;18.90;93.91
72892;BME280;61032;50.782;6.818;2023-07-29T05:01:38;99732.91;;;18.88;93.51
72892;BME280;61032;50.782;6.818;2023-07-29T05:02:39;99729.72;;;18.90;93.44
72892;BME280;61032;50.782;6.818;2023-07-29T05:03:39;99722.56;;;18.89;92.98
72892;BME280;61032;50.782;6.818;2023-07-29T05:04:40;99713.41;;;18.88;93.02
72892;BME280;61032;50.782;6.818;2023-07-29T05:05:40;99718.97;;;18.88;92.77
72892;BME280;61032;50.782;6.818;2023-07-29T05:06:40;99713.81;;;18.87;93.22
72892;BME280;61032;50.782;6.818;2023-07-29T05:07:41;99718.59;;;18.86;93.08
72892;BME280;61032;50.782;6.818;2023-07-29T05:08:41;99718.59;;;18.86;92.93
72892;BME280;61032;50.782;6.818;2023-07-29T05:09:41;99714.59;;;18.87;92.76
72892;BME280;61032;50.782;6.818;2023-07-29T05:10:42;99720.97;;;18.88;92.82
72892;BME280;61032;50.782;6.818;2023-07-29T05:11:43;99720.56;;;18.90;92.87
72892;BME280;61032;50.782;6.818;2023-07-29T05:12:47;99720.16;;;18.91;92.88
72892;BME280;61032;50.782;6.818;2023-07-29T05:13:47;99714.59;;;18.91;92.46
72892;BME280;61032;50.782;6.818;2023-07-29T05:14:47;99701.88;;;18.90;91.99
72892;BME280;61032;50.782;6.818;2023-07-29T05:15:48;99703.44;;;18.91;91.96
72892;BME280;61032;50.782;6.818;2023-07-29T05:16:49;99706.59;;;18.93;92.05
72892;BME280;61032;50.782;6.818;2023-07-29T05:17:50;99702.66;;;18.91;91.67
72892;BME280;61032;50.782;6.818;2023-07-29T05:18:50;99707.03;;;18.88;91.34
72892;BME280;61032;50.782;6.818;2023-07-29T05:19:50;99716.16;;;18.92;91.91
72892;BME280;61032;50.782;6.818;2023-07-29T05:20:51;99723.34;;;18.90;91.17
72892;BME280;61032;50.782;6.818;2023-07-29T05:21:51;99724.09;;;18.94;91.03
72892;BME280;61032;50.782;6.818;2023-07-29T05:22:51;99720.13;;;18.95;90.52
72892;BME280;61032;50.782;6.818;2023-07-29T05:23:52;99718.91;;;18.96;90.98
72892;BME280;61032;50.782;6.818;2023-07-29T05:24:52;99720.09;;;18.98;90.68
72892;BME280;61032;50.782;6.818;2023-07-29T05:25:52;99724.09;;;18.97;90.64
72892;BME280;61032;50.782;6.818;2023-07-29T05:26:52;99731.25;;;18.98;90.82
72892;BME280;61032;50.782;6.818;2023-07-29T05:27:53;99728.47;;;18.98;90.60
72892;BME280;61032;50.782;6.818;2023-07-29T05:28:53;99729.66;;;18.97;90.76
72892;BME280;61032;50.782;6.818;2023-07-29T05:29:53;99734.03;;;18.98;91.67
72892;BME280;61032;50.782;6.818;2023-07-29T05:30:54;99745.97;;;18.99;91.35
72892;BME280;61032;50.782;6.818;2023-07-29T05:31:54;99748.75;;;18.99;91.41